createdAt,value
2023-03-16T00:09:44.444Z,98608.23
2023-03-16T00:12:20.619Z,98619.55
2023-03-16T00:14:54.454Z,98620.47
2023-03-16T00:17:27.666Z,98618.88
2023-03-16T00:20:02.532Z,98594.80
2023-03-16T00:22:36.307Z,98604.39
2023-03-16T00:25:11.407Z,98547.95
2023-03-16T00:27:44.867Z,98596.77
2023-03-16T00:30:18.448Z,98594.24
2023-03-16T00:32:54.809Z,98595.16
2023-03-16T00:35:28.328Z,98586.64
2023-03-16T00:38:01.520Z,98589.37
2023-03-16T00:40:34.684Z,98594.56
2023-03-16T00:43:33.821Z,98587.64
2023-03-16T00:46:27.952Z,98578.11
2023-03-16T00:49:05.141Z,98586.78
2023-03-16T00:51:45.248Z,98589.37
2023-03-16T00:54:20.484Z,98579.06
2023-03-16T00:56:54.005Z,98585.09
2023-03-16T00:59:27.373Z,98592.84
2023-03-16T01:02:00.709Z,98593.67
2023-03-16T01:04:36.128Z,98591.17
2023-03-16T01:07:11.154Z,98595.42
2023-03-16T01:09:45.697Z,98595.42
2023-03-16T01:12:21.040Z,98589.42
2023-03-16T01:14:55.438Z,98593.67
2023-03-16T01:17:29.070Z,98587.59
2023-03-16T01:20:02.494Z,98588.39
2023-03-16T01:22:35.777Z,98594.30
2023-03-16T01:25:12.945Z,98593.44
2023-03-16T01:27:47.773Z,98590.77
2023-03-16T01:30:21.249Z,98593.35
2023-03-16T01:32:54.646Z,98594.98
2023-03-16T01:35:27.984Z,98598.37
2023-03-16T01:38:01.324Z,98585.33
2023-03-16T01:40:34.831Z,98586.10
2023-03-16T01:43:10.987Z,98597.23
2023-03-16T01:49:07.068Z,98598.39
2023-03-16T01:51:44.717Z,98605.78
2023-03-16T01:54:24.292Z,98603.06
2023-03-16T01:57:04.837Z,98589.42
2023-03-16T01:59:41.867Z,98597.20
2023-03-16T02:02:19.619Z,98599.66
2023-03-16T02:04:55.986Z,98604.82
2023-03-16T02:07:32.051Z,98614.29
2023-03-16T02:10:08.854Z,98609.98
2023-03-16T02:12:44.179Z,98614.26
2023-03-16T02:15:17.725Z,98605.59
2023-03-16T02:17:53.420Z,98615.24
2023-03-16T02:20:33.913Z,98599.75
2023-03-16T02:23:10.304Z,98603.99
2023-03-16T02:25:46.490Z,98592.84
2023-03-16T02:28:22.983Z,98606.52
2023-03-16T02:30:56.853Z,98609.86
2023-03-16T02:33:32.506Z,98607.22
2023-03-16T02:36:06.207Z,98564.39
2023-03-16T02:38:39.342Z,98620.19
2023-03-16T02:41:18.956Z,98610.69
2023-03-16T02:43:58.345Z,98608.14
2023-03-16T02:46:36.002Z,98596.25
2023-03-16T02:49:15.838Z,98589.20
2023-03-16T02:51:49.457Z,98600.33
2023-03-16T02:54:22.859Z,98609.73
2023-03-16T02:56:57.691Z,98604.60
2023-03-16T02:59:32.186Z,98601.19
2023-03-16T03:02:05.749Z,98603.86
2023-03-16T03:04:39.023Z,98600.42
2023-03-16T03:07:15.847Z,98594.43
2023-03-16T03:09:56.639Z,98584.08
2023-03-16T03:12:30.848Z,98596.95
2023-03-16T03:15:04.031Z,98601.19
2023-03-16T03:17:39.327Z,98591.81
2023-03-16T03:20:16.672Z,98582.32
2023-03-16T03:22:52.745Z,98585.67
2023-03-16T03:25:26.304Z,98583.95
2023-03-16T03:28:01.075Z,98583.18
2023-03-16T03:30:37.338Z,98577.13
2023-03-16T03:33:13.076Z,98578.78
2023-03-16T03:35:46.524Z,98582.30
2023-03-16T03:38:19.852Z,98580.69
2023-03-16T03:40:59.774Z,98581.58
2023-03-16T03:43:34.925Z,98572.95
2023-03-16T03:46:10.911Z,98564.31
2023-03-16T03:48:43.853Z,98560.89
2023-03-16T03:51:17.004Z,98560.09
2023-03-16T03:54:02.520Z,98560.13
2023-03-16T03:56:59.670Z,98555.77
2023-03-16T03:59:35.066Z,98554.94
2023-03-16T04:02:22.128Z,98558.34
2023-03-16T04:16:45.156Z,98562.86
2023-03-16T04:19:18.712Z,98566.22
2023-03-16T04:21:52.039Z,98568.80
2023-03-16T04:24:25.933Z,98564.43
2023-03-16T04:26:59.450Z,98559.98
2023-03-16T04:29:33.164Z,98558.44
2023-03-16T04:32:07.081Z,98552.32
2023-03-16T04:34:42.548Z,98560.95
2023-03-16T04:37:16.508Z,98564.34
2023-03-16T04:39:49.858Z,98569.50
2023-03-16T04:42:24.870Z,98573.04
2023-03-16T04:44:58.114Z,98573.84
2023-03-16T04:47:39.102Z,98569.56
2023-03-16T04:50:14.990Z,98573.84
2023-03-16T04:52:54.402Z,98579.09
2023-03-16T04:55:37.313Z,98581.89
2023-03-16T04:58:11.585Z,98589.64
2023-03-16T05:00:48.619Z,98591.30
2023-03-16T05:03:27.512Z,98599.81
2023-03-16T05:06:02.604Z,98604.05
2023-03-16T05:08:37.105Z,98598.95
2023-03-16T05:11:11.755Z,98598.06
2023-03-16T05:13:46.828Z,98605.78
2023-03-16T05:16:20.842Z,98609.28
2023-03-16T05:18:54.616Z,98605.91
2023-03-16T05:21:31.742Z,98605.13
2023-03-16T05:24:10.217Z,98602.39
2023-03-16T05:26:44.433Z,98609.95
2023-03-16T05:29:20.773Z,98605.56
2023-03-16T05:31:55.442Z,98606.42
2023-03-16T05:34:30.141Z,98612.47
2023-03-16T05:37:06.602Z,98618.50
2023-03-16T05:39:41.092Z,98622.86
2023-03-16T05:42:14.830Z,98622.92
2023-03-16T05:44:49.809Z,98620.41
2023-03-16T05:47:27.384Z,98620.44
2023-03-16T05:50:02.193Z,98625.70
2023-03-16T05:52:40.543Z,98624.80
2023-03-16T05:55:17.202Z,98618.72
2023-03-16T05:57:52.983Z,98617.12
2023-03-16T06:00:30.364Z,98613.70
2023-03-16T06:03:05.916Z,98630.03
2023-03-16T06:05:42.377Z,98630.03
2023-03-16T06:08:17.182Z,98625.95
2023-03-16T06:10:52.186Z,98631.97
2023-03-16T06:13:29.817Z,98616.35
2023-03-16T06:16:04.058Z,98629.14
2023-03-16T06:18:39.741Z,98622.83
2023-03-16T06:21:13.196Z,98617.61
2023-03-16T06:23:46.401Z,98620.22
2023-03-16T06:26:20.057Z,98630.55
2023-03-16T06:28:53.859Z,98597.46
2023-03-16T06:31:29.403Z,98630.64
2023-03-16T06:34:03.807Z,98632.39
2023-03-16T06:36:40.310Z,98636.73
2023-03-16T06:39:14.603Z,98641.73
2023-03-16T06:41:49.180Z,98650.34
2023-03-16T06:44:22.651Z,98639.75
2023-03-16T06:47:00.447Z,98650.97
2023-03-16T06:49:33.700Z,98642.34
2023-03-16T06:52:10.783Z,98647.43
2023-03-16T06:54:44.550Z,98654.38
2023-03-16T06:57:18.072Z,98645.88
2023-03-16T06:59:51.432Z,98643.33
2023-03-16T07:02:24.666Z,98648.39
2023-03-16T07:04:58.352Z,98651.00
2023-03-16T07:07:31.525Z,98645.88
2023-03-16T07:10:04.840Z,98644.25
2023-03-16T07:12:38.593Z,98652.13
2023-03-16T07:15:12.847Z,98658.41
2023-03-16T07:17:46.144Z,98657.77
2023-03-16T07:20:22.842Z,98660.51
2023-03-16T07:22:55.224Z,98661.52
2023-03-16T07:25:28.511Z,98646.12
2023-03-16T07:28:01.999Z,98656.62
2023-03-16T07:30:36.746Z,98646.33
2023-03-16T07:33:10.439Z,98659.72
2023-03-16T07:35:44.949Z,98656.39
2023-03-16T07:38:18.318Z,98649.89
2023-03-16T07:40:53.169Z,98651.78
2023-03-16T07:43:27.769Z,98647.52
2023-03-16T07:46:02.293Z,98642.46
2023-03-16T07:48:35.481Z,98643.43
2023-03-16T07:51:10.224Z,98637.50
2023-03-16T07:53:43.828Z,98643.64
2023-03-16T07:56:22.400Z,98636.61
2023-03-16T07:58:57.251Z,98634.98
2023-03-16T08:01:46.378Z,98630.06
2023-03-16T08:04:19.716Z,98630.41
2023-03-16T08:06:55.058Z,98630.77
2023-03-16T08:09:30.191Z,98628.48
2023-03-16T08:12:03.993Z,98633.07
2023-03-16T08:14:39.806Z,98638.43
2023-03-16T08:17:15.312Z,98639.40
2023-03-16T08:19:49.176Z,98636.02
2023-03-16T08:22:22.522Z,98643.01
2023-03-16T08:24:55.745Z,98642.25
2023-03-16T08:27:30.046Z,98639.70
2023-03-16T08:30:06.335Z,98640.61
2023-03-16T08:32:41.472Z,98644.14
2023-03-16T08:35:17.529Z,98644.19
2023-03-16T08:37:51.502Z,98642.52
2023-03-16T08:40:25.488Z,98635.66
2023-03-16T08:42:58.677Z,98637.48
2023-03-16T08:45:31.836Z,98631.70
2023-03-16T08:48:05.592Z,98624.13
2023-03-16T08:50:39.094Z,98624.22
2023-03-16T08:53:13.773Z,98619.86
2023-03-16T08:55:46.987Z,98625.05
2023-03-16T08:58:20.187Z,98632.83
2023-03-16T09:00:53.854Z,98644.87
2023-03-16T09:03:27.412Z,98643.00
2023-03-16T09:06:05.642Z,98642.91
2023-03-16T09:08:41.124Z,98649.88
2023-03-16T09:11:17.423Z,98653.27
2023-03-16T09:13:53.047Z,98651.34
2023-03-16T09:16:29.055Z,98652.10
2023-03-16T09:19:01.358Z,98652.96
2023-03-16T09:21:35.177Z,98653.80
2023-03-16T09:24:09.077Z,98654.55
2023-03-16T09:26:43.025Z,98653.50
2023-03-16T09:29:24.195Z,98650.77
2023-03-16T09:31:58.946Z,98648.03
2023-03-16T09:34:34.537Z,98647.91
2023-03-16T09:37:08.340Z,98642.72
2023-03-16T09:39:41.618Z,98645.27
2023-03-16T09:42:21.830Z,98646.97
2023-03-16T09:45:03.255Z,98646.09
2023-03-16T09:47:38.832Z,98648.69
2023-03-16T09:50:17.748Z,98642.55
2023-03-16T09:52:54.167Z,98641.64
2023-03-16T09:55:31.991Z,98640.77
2023-03-16T09:58:05.360Z,98643.24
2023-03-16T10:00:42.064Z,98614.37
2023-03-16T10:03:24.697Z,98648.19
2023-03-16T10:06:02.242Z,98638.74
2023-03-16T10:08:39.606Z,98643.96
2023-03-16T10:11:23.771Z,98653.56
2023-03-16T10:14:00.266Z,98656.21
2023-03-16T10:16:40.161Z,98665.75
2023-03-16T10:19:17.119Z,98641.47
2023-03-16T10:21:53.957Z,98662.44
2023-03-16T10:24:35.802Z,98660.95
2023-03-16T10:27:11.380Z,98660.95
2023-03-16T10:29:44.544Z,98656.70
2023-03-16T10:32:20.098Z,98654.14
2023-03-16T10:35:00.026Z,98655.80
2023-03-16T10:37:37.589Z,98660.16
2023-03-16T10:40:13.917Z,98667.23
2023-03-16T10:42:47.852Z,98660.33
2023-03-16T10:45:29.768Z,98659.48
2023-03-16T10:48:12.118Z,98669.81
2023-03-16T10:50:47.742Z,98668.92
2023-03-16T10:53:25.513Z,98666.28
2023-03-16T10:56:02.948Z,98664.42
2023-03-16T10:58:38.486Z,98664.42
2023-03-16T11:01:18.775Z,98661.88
2023-03-16T11:03:55.719Z,98659.31
2023-03-16T11:06:31.423Z,98671.42
2023-03-16T11:09:09.926Z,98671.35
2023-03-16T11:11:44.647Z,98668.78
2023-03-16T11:14:19.816Z,98670.52
2023-03-16T11:16:57.842Z,98662.76
2023-03-16T11:19:33.336Z,98669.67
2023-03-16T11:22:09.779Z,98668.03
2023-03-16T11:24:47.958Z,98668.88
2023-03-16T11:27:26.485Z,98672.28
2023-03-16T11:30:07.095Z,98672.28
2023-03-16T11:32:42.618Z,98673.19
2023-03-16T11:35:19.765Z,98673.27
2023-03-16T11:38:01.123Z,98674.20
2023-03-16T11:40:40.971Z,98675.11
2023-03-16T11:43:22.632Z,98674.30
2023-03-16T11:46:01.762Z,98678.65
2023-03-16T11:48:39.616Z,98684.55
2023-03-16T11:51:13.550Z,98682.76
2023-03-16T11:53:55.815Z,98683.56
2023-03-16T11:56:38.413Z,98659.72
2023-03-16T11:59:25.629Z,98692.88
2023-03-16T12:02:38.143Z,98692.98
2023-03-16T12:08:29.276Z,98681.83
2023-03-16T12:11:05.827Z,98699.84
2023-03-16T12:13:46.951Z,98702.41
2023-03-16T12:16:24.566Z,98703.27
2023-03-16T12:19:01.871Z,98701.56
2023-03-16T12:21:38.802Z,98702.42
2023-03-16T12:24:16.995Z,98708.54
2023-03-16T12:26:51.036Z,98706.77
2023-03-16T12:29:29.459Z,98708.45
2023-03-16T12:32:07.991Z,98708.45
2023-03-16T12:34:46.240Z,98701.49
2023-03-16T12:37:30.399Z,98708.29
2023-03-16T12:40:15.308Z,98718.55
2023-03-16T12:42:56.474Z,98716.74
2023-03-16T12:45:35.351Z,98721.85
2023-03-16T12:48:17.048Z,98721.85
2023-03-16T12:50:54.669Z,98726.09
2023-03-16T12:53:43.593Z,98726.00
2023-03-16T12:56:19.875Z,98726.94
2023-03-16T12:58:55.821Z,98724.39
2023-03-16T13:01:31.704Z,98721.88
2023-03-16T13:04:10.817Z,98735.66
2023-03-16T13:06:49.582Z,98735.64
2023-03-16T13:09:27.572Z,98737.17
2023-03-16T13:12:05.398Z,98746.52
2023-03-16T13:14:41.873Z,98747.30
2023-03-16T13:20:31.960Z,98738.59
2023-03-16T13:23:25.424Z,98753.92
2023-03-16T13:26:15.875Z,98744.45
2023-03-16T13:28:54.377Z,98746.23
2023-03-16T13:31:31.258Z,98744.48
2023-03-16T13:34:07.188Z,98741.84
2023-03-16T13:36:40.800Z,98738.44
2023-03-16T13:39:19.704Z,98743.64
2023-03-16T13:42:01.745Z,98752.24
2023-03-16T13:44:35.185Z,98747.80
2023-03-16T13:47:20.671Z,98753.68
2023-03-16T13:49:59.183Z,98745.72
2023-03-16T13:52:36.510Z,98750.02
2023-03-16T13:55:16.366Z,98745.72
2023-03-16T13:57:51.651Z,98743.97
2023-03-16T14:00:28.148Z,98745.59
2023-03-16T14:05:35.395Z,98735.23
2023-03-16T14:08:18.509Z,98735.85
2023-03-16T14:10:52.896Z,98734.98
2023-03-16T14:13:43.880Z,98743.73
2023-03-16T14:16:20.038Z,98747.28
2023-03-16T14:18:59.178Z,98743.73
2023-03-16T14:21:35.241Z,98748.01
2023-03-16T14:24:11.332Z,98741.92
2023-03-16T14:26:46.431Z,98749.53
2023-03-16T14:29:25.091Z,98746.75
2023-03-16T14:32:00.448Z,98746.59
2023-03-16T14:34:38.656Z,98744.81
2023-03-16T14:37:19.581Z,98743.18
2023-03-16T14:40:09.293Z,98732.92
2023-03-16T14:42:47.118Z,98739.97
2023-03-16T14:45:26.462Z,98740.91
2023-03-16T14:48:06.409Z,98751.29
2023-03-16T14:50:44.487Z,98755.57
2023-03-16T14:53:24.161Z,98753.73
2023-03-16T14:56:12.369Z,98761.38
2023-03-16T14:58:46.357Z,98762.23
2023-03-16T15:01:22.300Z,98770.02
2023-03-16T15:04:09.868Z,98784.71
2023-03-16T15:06:44.863Z,98768.24
2023-03-16T15:09:31.483Z,98786.43
2023-03-16T15:12:05.017Z,98789.91
2023-03-16T15:14:56.340Z,98786.38
2023-03-16T15:17:31.910Z,98788.81
2023-03-16T15:20:06.108Z,98786.94
2023-03-16T15:22:43.909Z,98795.42
2023-03-16T15:25:28.670Z,98803.09
2023-03-16T15:28:02.493Z,98805.61
2023-03-16T15:30:38.188Z,98792.56
2023-03-16T15:33:16.159Z,98808.88
2023-03-16T15:35:51.908Z,98804.44
2023-03-16T15:38:32.748Z,98802.55
2023-03-16T15:41:12.584Z,98808.52
2023-03-16T15:43:49.566Z,98815.44
2023-03-16T15:46:24.781Z,98819.75
2023-03-16T15:48:59.797Z,98812.86
2023-03-16T15:51:34.084Z,98823.12
2023-03-16T15:54:10.416Z,98823.89
2023-03-16T15:56:54.254Z,98828.06
2023-03-16T15:59:27.390Z,98831.38
2023-03-16T16:02:00.530Z,98828.79
2023-03-16T16:04:34.056Z,98836.61
2023-03-16T16:07:12.294Z,98842.46
2023-03-16T16:09:46.833Z,98846.66
2023-03-16T16:12:40.661Z,98847.59
2023-03-16T16:18:20.479Z,98858.00
2023-03-16T16:20:38.019Z,98862.81
2023-03-16T16:23:12.900Z,98862.92
2023-03-16T16:25:51.791Z,98879.39
2023-03-16T16:28:28.106Z,98886.31
2023-03-16T16:31:06.101Z,98892.27
2023-03-16T16:33:39.208Z,98896.69
2023-03-16T16:36:19.707Z,98896.83
2023-03-16T16:38:54.615Z,98896.72
2023-03-16T16:41:31.333Z,98903.47
2023-03-16T16:44:09.038Z,98905.05
2023-03-16T16:46:42.744Z,98903.32
2023-03-16T16:49:19.636Z,98921.47
2023-03-16T16:51:54.472Z,98920.47
2023-03-16T16:54:29.701Z,98919.45
2023-03-16T16:57:05.182Z,98926.23
2023-03-16T16:59:39.776Z,98929.64
2023-03-16T17:02:26.562Z,98941.47
2023-03-16T17:05:00.226Z,98931.92
2023-03-16T17:07:35.188Z,98938.66
2023-03-16T17:13:20.750Z,98941.20
2023-03-16T17:15:54.671Z,98936.73
2023-03-16T17:18:28.808Z,98946.75
2023-03-16T17:21:02.538Z,98938.19
2023-03-16T17:23:38.354Z,98931.27
2023-03-16T17:26:23.847Z,98930.45
2023-03-16T17:29:09.347Z,98937.45
2023-03-16T17:31:48.321Z,98948.52
2023-03-16T17:34:30.492Z,98938.93
2023-03-16T17:37:08.434Z,98936.31
2023-03-16T17:39:42.916Z,98942.33
2023-03-16T17:42:22.099Z,98948.39
2023-03-16T17:45:00.093Z,98948.20
2023-03-16T17:47:42.603Z,98949.87
2023-03-16T17:50:32.785Z,98949.02
2023-03-16T17:53:09.879Z,98949.80
2023-03-16T17:55:52.682Z,98960.12
2023-03-16T17:58:35.946Z,98964.50
2023-03-16T18:01:13.779Z,98972.98
2023-03-16T18:03:47.024Z,98978.06
2023-03-16T18:06:26.735Z,98976.34
2023-03-16T18:09:01.120Z,98972.20
2023-03-16T18:11:49.703Z,98960.20
2023-03-16T18:14:29.598Z,98974.78
2023-03-16T18:17:11.181Z,98985.15
2023-03-16T18:20:02.862Z,98983.43
2023-03-16T18:22:38.828Z,98992.94
2023-03-16T18:25:38.406Z,98990.55
2023-03-16T18:28:14.088Z,98982.07
2023-03-16T18:30:54.365Z,98991.49
2023-03-16T18:33:39.210Z,98995.67
2023-03-16T18:36:31.284Z,98994.48
2023-03-16T18:39:19.037Z,99009.89
2023-03-16T18:41:57.065Z,99008.13
2023-03-16T18:44:35.558Z,99003.99
2023-03-16T18:47:12.615Z,99002.39
2023-03-16T18:49:48.080Z,98995.52
2023-03-16T18:52:23.891Z,98992.81
2023-03-16T18:54:58.494Z,99000.39
2023-03-16T18:57:49.208Z,99004.64
2023-03-16T19:00:35.643Z,99013.20
2023-03-16T19:03:46.763Z,99019.19
2023-03-16T19:06:25.257Z,99015.87
2023-03-16T19:09:04.566Z,99019.19
2023-03-16T19:11:40.223Z,99026.06
2023-03-16T19:14:21.671Z,99035.27
2023-03-16T19:16:56.215Z,99031.78
2023-03-16T19:19:40.964Z,99036.78
2023-03-16T19:22:12.907Z,99035.91
2023-03-16T19:24:46.426Z,99034.97
2023-03-16T19:27:26.894Z,99045.20
2023-03-16T19:30:02.413Z,99048.28
2023-03-16T19:32:44.941Z,99043.04
2023-03-16T19:35:22.069Z,99055.80
2023-03-16T19:37:57.297Z,99066.30
2023-03-16T19:40:32.189Z,99057.52
2023-03-16T19:43:06.909Z,99061.78
2023-03-16T19:45:43.198Z,99060.96
2023-03-16T19:48:21.326Z,99059.11
2023-03-16T19:50:55.695Z,99058.16
2023-03-16T19:53:33.736Z,99061.46
2023-03-16T19:56:09.744Z,99062.23
2023-03-16T19:58:45.121Z,99067.24
2023-03-16T20:01:23.611Z,99075.08
2023-03-16T20:03:56.897Z,99076.12
2023-03-16T20:06:30.650Z,99075.39
2023-03-16T20:09:07.001Z,99073.63
2023-03-16T20:11:44.297Z,99066.57
2023-03-16T20:14:23.859Z,99073.27
2023-03-16T20:17:03.325Z,99073.22
2023-03-16T20:19:48.728Z,99078.47
2023-03-16T20:22:30.577Z,99075.97
2023-03-16T20:25:05.405Z,99078.70
2023-03-16T20:27:57.905Z,99067.66
2023-03-16T20:30:34.072Z,99075.52
2023-03-16T20:33:07.528Z,99081.59
2023-03-16T20:35:44.823Z,99084.22
2023-03-16T20:38:21.817Z,99080.88
2023-03-16T20:41:10.502Z,99084.30
2023-03-16T20:43:43.064Z,99079.02
2023-03-16T20:46:23.407Z,99090.33
2023-03-16T20:48:57.436Z,99087.07
2023-03-16T20:51:31.504Z,99087.92
2023-03-16T20:54:04.802Z,99080.19
2023-03-16T20:56:38.545Z,99096.52
2023-03-16T20:59:22.991Z,99098.23
2023-03-16T21:02:08.703Z,99099.01
2023-03-16T21:04:51.410Z,99099.78
2023-03-16T21:11:09.080Z,99106.34
2023-03-16T21:14:34.732Z,99107.11
2023-03-16T21:17:26.918Z,99114.70
2023-03-16T21:20:01.502Z,99124.78
2023-03-16T21:22:35.787Z,99121.34
2023-03-16T21:25:17.699Z,99121.39
2023-03-16T21:27:52.092Z,99125.59
2023-03-16T21:30:30.592Z,99127.36
2023-03-16T21:33:04.745Z,99123.91
2023-03-16T21:35:39.265Z,99125.55
2023-03-16T21:38:20.042Z,99126.55
2023-03-16T21:40:53.430Z,99124.78
2023-03-16T21:43:27.580Z,99125.64
2023-03-16T21:46:00.860Z,99137.57
2023-03-16T21:48:37.850Z,99130.60
2023-03-16T21:51:19.988Z,99137.39
2023-03-16T21:53:53.842Z,99146.94
2023-03-16T21:56:27.668Z,99153.72
2023-03-16T21:59:00.859Z,99160.64
2023-03-16T22:01:39.443Z,99162.50
2023-03-16T22:04:17.775Z,99155.67
2023-03-16T22:06:53.233Z,99160.06
2023-03-16T22:09:28.131Z,99160.92
2023-03-16T22:12:01.243Z,99159.25
2023-03-16T22:14:34.493Z,99158.48
2023-03-16T22:17:09.043Z,99156.67
2023-03-16T22:19:42.297Z,99164.22
2023-03-16T22:22:20.285Z,99163.98
2023-03-16T22:24:53.522Z,99159.83
2023-03-16T22:27:26.994Z,99165.93
2023-03-16T22:30:00.476Z,99172.00
2023-03-16T22:32:34.034Z,99168.61
2023-03-16T22:35:09.590Z,99173.66
2023-03-16T22:37:42.754Z,99180.40
2023-03-16T22:40:23.638Z,99170.95
2023-03-16T22:42:58.437Z,99182.03
2023-03-16T22:45:34.062Z,99188.13
2023-03-16T22:48:18.932Z,99194.86
2023-03-16T22:50:53.978Z,99195.73
2023-03-16T22:53:30.485Z,99188.08
2023-03-16T22:56:04.015Z,99201.83
2023-03-16T22:58:40.512Z,99204.47
2023-03-16T23:01:23.274Z,99205.28
2023-03-16T23:03:56.693Z,99206.94
2023-03-16T23:06:32.711Z,99206.18
2023-03-16T23:09:06.723Z,99206.18
2023-03-16T23:11:43.598Z,99207.05
2023-03-16T23:14:21.647Z,99203.66
2023-03-16T23:16:55.527Z,99200.02
2023-03-16T23:19:32.043Z,99197.20
2023-03-16T23:22:07.779Z,99195.52
2023-03-16T23:24:41.049Z,99202.36
2023-03-16T23:27:24.057Z,99207.51
2023-03-16T23:29:57.150Z,99205.83
2023-03-16T23:32:30.352Z,99217.77
2023-03-16T23:35:05.037Z,99215.24
2023-03-16T23:37:38.125Z,99213.48
2023-03-16T23:40:17.016Z,99216.90
2023-03-16T23:42:50.739Z,99215.95
2023-03-16T23:45:28.543Z,99214.89
2023-03-16T23:48:05.685Z,99222.73
2023-03-16T23:50:43.387Z,99227.07
2023-03-16T23:53:20.198Z,99235.61
2023-03-16T23:55:53.345Z,99236.46
2023-03-16T23:58:26.553Z,99239.95
